sensor_id;sensor_type;location;lat;lon;timestamp;pressure;altitude;pressure_sealevel;temperature;humidity
64230;BME280;50547;49.498;0.092;2022-10-31T00:01:38;1015;;;16.01;81.21
64230;BME280;50547;49.498;0.092;2022-10-31T00:04:05;1016;;;16.06;81.15
64230;BME280;50547;49.498;0.092;2022-10-31T00:06:35;1015;;;16.01;81.24
64230;BME280;50547;49.498;0.092;2022-10-31T00:09:03;1015;;;16.00;81.02
64230;BME280;50547;49.498;0.092;2022-10-31T00:11:33;1015;;;16.00;81.02
64230;BME280;50547;49.498;0.092;2022-10-31T00:14:02;1016;;;16.07;80.55
64230;BME280;50547;49.498;0.092;2022-10-31T00:16:31;1016;;;16.01;81.10
64230;BME280;50547;49.498;0.092;2022-10-31T00:19:03;1016;;;15.86;81.80
64230;BME280;50547;49.498;0.092;2022-10-31T00:21:33;1015;;;15.93;81.49
64230;BME280;50547;49.498;0.092;2022-10-31T00:24:03;1015;;;16.03;80.80
64230;BME280;50547;49.498;0.092;2022-10-31T00:26:32;1015;;;16.07;80.55
64230;BME280;50547;49.498;0.092;2022-10-31T00:29:02;1015;;;16.00;80.70
64230;BME280;50547;49.498;0.092;2022-10-31T00:31:31;1015;;;15.94;81.18
64230;BME280;50547;49.498;0.092;2022-10-31T00:34:00;1015;;;15.98;80.91
64230;BME280;50547;49.498;0.092;2022-10-31T00:36:30;1015;;;15.88;81.21
64230;BME280;50547;49.498;0.092;2022-10-31T00:38:59;1015;;;15.95;80.88
64230;BME280;50547;49.498;0.092;2022-10-31T00:41:25;1015;;;15.94;80.80
64230;BME280;50547;49.498;0.092;2022-10-31T00:43:54;1015;;;16.00;80.63
64230;BME280;50547;49.498;0.092;2022-10-31T00:46:23;1015;;;16.12;80.05
64230;BME280;50547;49.498;0.092;2022-10-31T00:48:53;1015;;;16.02;80.51
64230;BME280;50547;49.498;0.092;2022-10-31T00:51:22;1015;;;15.96;80.79
64230;BME280;50547;49.498;0.092;2022-10-31T00:53:51;1015;;;16.09;80.15
64230;BME280;50547;49.498;0.092;2022-10-31T00:56:20;1015;;;16.05;80.29
64230;BME280;50547;49.498;0.092;2022-10-31T00:58:49;1015;;;16.04;80.45
64230;BME280;50547;49.498;0.092;2022-10-31T01:01:19;1015;;;16.08;80.35
64230;BME280;50547;49.498;0.092;2022-10-31T01:03:45;1015;;;16.08;80.18
64230;BME280;50547;49.498;0.092;2022-10-31T01:06:14;1015;;;16.12;80.08
64230;BME280;50547;49.498;0.092;2022-10-31T01:08:43;1015;;;16.12;80.10
64230;BME280;50547;49.498;0.092;2022-10-31T01:11:15;1015;;;15.96;81.07
64230;BME280;50547;49.498;0.092;2022-10-31T01:13:46;1015;;;16.01;80.86
64230;BME280;50547;49.498;0.092;2022-10-31T01:16:14;1015;;;16.05;80.57
64230;BME280;50547;49.498;0.092;2022-10-31T01:18:41;1015;;;16.20;80.08
64230;BME280;50547;49.498;0.092;2022-10-31T01:21:12;1015;;;16.26;79.68
64230;BME280;50547;49.498;0.092;2022-10-31T01:23:42;1015;;;16.25;79.77
64230;BME280;50547;49.498;0.092;2022-10-31T01:26:13;1015;;;16.30;79.86
64230;BME280;50547;49.498;0.092;2022-10-31T01:28:45;1015;;;16.47;79.12
64230;BME280;50547;49.498;0.092;2022-10-31T01:31:16;1015;;;16.53;78.83
64230;BME280;50547;49.498;0.092;2022-10-31T01:33:46;1015;;;16.52;78.99
64230;BME280;50547;49.498;0.092;2022-10-31T01:36:18;1015;;;16.45;79.28
64230;BME280;50547;49.498;0.092;2022-10-31T01:38:49;1015;;;16.26;79.81
64230;BME280;50547;49.498;0.092;2022-10-31T01:41:21;1015;;;16.32;79.60
64230;BME280;50547;49.498;0.092;2022-10-31T01:43:52;1015;;;16.21;79.79
64230;BME280;50547;49.498;0.092;2022-10-31T01:46:25;1015;;;16.21;79.59
64230;BME280;50547;49.498;0.092;2022-10-31T01:48:57;1015;;;16.25;79.36
64230;BME280;50547;49.498;0.092;2022-10-31T01:51:32;1015;;;16.32;78.92
64230;BME280;50547;49.498;0.092;2022-10-31T01:54:05;1015;;;16.18;79.30
64230;BME280;50547;49.498;0.092;2022-10-31T01:56:39;1015;;;16.08;79.35
64230;BME280;50547;49.498;0.092;2022-10-31T01:59:11;1015;;;15.75;80.62
64230;BME280;50547;49.498;0.092;2022-10-31T02:01:41;1015;;;15.68;80.56
64230;BME280;50547;49.498;0.092;2022-10-31T02:04:11;1015;;;15.68;80.37
64230;BME280;50547;49.498;0.092;2022-10-31T02:06:43;1015;;;15.65;80.34
64230;BME280;50547;49.498;0.092;2022-10-31T02:09:14;1015;;;15.48;80.90
64230;BME280;50547;49.498;0.092;2022-10-31T02:11:44;1015;;;15.26;81.92
64230;BME280;50547;49.498;0.092;2022-10-31T02:14:13;1015;;;15.34;81.35
64230;BME280;50547;49.498;0.092;2022-10-31T02:16:43;1015;;;15.27;81.44
64230;BME280;50547;49.498;0.092;2022-10-31T02:19:16;1015;;;15.31;81.01
64230;BME280;50547;49.498;0.092;2022-10-31T02:21:53;1015;;;15.47;80.35
64230;BME280;50547;49.498;0.092;2022-10-31T02:24:40;1015;;;15.56;79.92
64230;BME280;50547;49.498;0.092;2022-10-31T02:27:25;1015;;;15.53;80.28
64230;BME280;50547;49.498;0.092;2022-10-31T02:30:07;1015;;;15.54;80.22
64230;BME280;50547;49.498;0.092;2022-10-31T02:33:19;1015;;;15.44;80.47
64230;BME280;50547;49.498;0.092;2022-10-31T02:35:58;1014;;;15.17;81.36
64230;BME280;50547;49.498;0.092;2022-10-31T02:38:41;1014;;;15.10;81.55
64230;BME280;50547;49.498;0.092;2022-10-31T02:41:19;1014;;;15.15;80.95
64230;BME280;50547;49.498;0.092;2022-10-31T02:44:02;1014;;;14.94;81.75
64230;BME280;50547;49.498;0.092;2022-10-31T02:46:39;1014;;;14.93;81.72
64230;BME280;50547;49.498;0.092;2022-10-31T02:49:15;1014;;;14.83;82.15
64230;BME280;50547;49.498;0.092;2022-10-31T02:51:47;1014;;;14.86;81.72
64230;BME280;50547;49.498;0.092;2022-10-31T02:54:18;1014;;;14.70;82.24
64230;BME280;50547;49.498;0.092;2022-10-31T02:56:50;1014;;;14.64;82.80
64230;BME280;50547;49.498;0.092;2022-10-31T02:59:21;1014;;;14.71;82.43
64230;BME280;50547;49.498;0.092;2022-10-31T03:02:04;1014;;;14.67;82.52
64230;BME280;50547;49.498;0.092;2022-10-31T03:04:45;1014;;;14.50;83.23
64230;BME280;50547;49.498;0.092;2022-10-31T03:07:23;1014;;;14.39;83.57
64230;BME280;50547;49.498;0.092;2022-10-31T03:10:04;1014;;;14.27;83.53
64230;BME280;50547;49.498;0.092;2022-10-31T03:12:42;1014;;;14.24;83.44
64230;BME280;50547;49.498;0.092;2022-10-31T03:15:21;1014;;;14.23;83.11
64230;BME280;50547;49.498;0.092;2022-10-31T03:17:56;1014;;;14.26;82.68
64230;BME280;50547;49.498;0.092;2022-10-31T03:20:31;1014;;;14.28;82.44
64230;BME280;50547;49.498;0.092;2022-10-31T03:23:03;1014;;;14.12;83.15
64230;BME280;50547;49.498;0.092;2022-10-31T03:25:34;1014;;;14.09;83.11
64230;BME280;50547;49.498;0.092;2022-10-31T03:28:06;1014;;;13.98;83.53
64230;BME280;50547;49.498;0.092;2022-10-31T03:30:39;1014;;;13.86;84.09
64230;BME280;50547;49.498;0.092;2022-10-31T03:33:14;1014;;;14.03;83.06
64230;BME280;50547;49.498;0.092;2022-10-31T03:35:47;1014;;;14.15;82.35
64230;BME280;50547;49.498;0.092;2022-10-31T03:38:20;1014;;;14.05;82.76
64230;BME280;50547;49.498;0.092;2022-10-31T03:40:51;1014;;;13.95;83.16
64230;BME280;50547;49.498;0.092;2022-10-31T03:43:26;1014;;;14.13;82.53
64230;BME280;50547;49.498;0.092;2022-10-31T03:45:57;1014;;;14.30;81.68
64230;BME280;50547;49.498;0.092;2022-10-31T03:48:27;1014;;;14.27;81.74
64230;BME280;50547;49.498;0.092;2022-10-31T03:51:01;1014;;;14.34;81.63
64230;BME280;50547;49.498;0.092;2022-10-31T03:53:34;1014;;;14.38;81.60
64230;BME280;50547;49.498;0.092;2022-10-31T03:56:10;1014;;;14.21;82.52
64230;BME280;50547;49.498;0.092;2022-10-31T03:58:44;1014;;;14.23;82.62
64230;BME280;50547;49.498;0.092;2022-10-31T04:01:17;1014;;;14.44;81.53
64230;BME280;50547;49.498;0.092;2022-10-31T04:03:48;1014;;;14.40;82.10
64230;BME280;50547;49.498;0.092;2022-10-31T04:06:19;1014;;;14.32;82.50
64230;BME280;50547;49.498;0.092;2022-10-31T04:08:53;1014;;;14.39;82.41
64230;BME280;50547;49.498;0.092;2022-10-31T04:11:27;1014;;;14.39;82.36
64230;BME280;50547;49.498;0.092;2022-10-31T04:13:59;1014;;;14.66;81.39
64230;BME280;50547;49.498;0.092;2022-10-31T04:16:29;1014;;;14.84;80.94
64230;BME280;50547;49.498;0.092;2022-10-31T04:18:58;1014;;;14.73;81.34
64230;BME280;50547;49.498;0.092;2022-10-31T04:21:29;1014;;;14.52;82.13
64230;BME280;50547;49.498;0.092;2022-10-31T04:23:58;1014;;;14.47;82.53
64230;BME280;50547;49.498;0.092;2022-10-31T04:26:27;1014;;;14.31;83.02
64230;BME280;50547;49.498;0.092;2022-10-31T04:28:57;1014;;;14.16;83.19
64230;BME280;50547;49.498;0.092;2022-10-31T04:31:26;1014;;;14.17;83.13
64230;BME280;50547;49.498;0.092;2022-10-31T04:33:56;1014;;;14.01;83.68
64230;BME280;50547;49.498;0.092;2022-10-31T04:36:25;1014;;;13.96;83.57
64230;BME280;50547;49.498;0.092;2022-10-31T04:38:54;1014;;;13.93;83.38
64230;BME280;50547;49.498;0.092;2022-10-31T04:41:23;1014;;;13.84;83.70
64230;BME280;50547;49.498;0.092;2022-10-31T04:43:53;1014;;;13.82;83.61
64230;BME280;50547;49.498;0.092;2022-10-31T04:46:22;1014;;;13.73;83.87
64230;BME280;50547;49.498;0.092;2022-10-31T04:48:51;1014;;;13.57;84.55
64230;BME280;50547;49.498;0.092;2022-10-31T04:51:20;1014;;;13.57;84.45
64230;BME280;50547;49.498;0.092;2022-10-31T04:53:49;1014;;;13.59;83.90
64230;BME280;50547;49.498;0.092;2022-10-31T04:56:18;1014;;;13.47;84.31
64230;BME280;50547;49.498;0.092;2022-10-31T04:58:48;1014;;;13.40;84.79
64230;BME280;50547;49.498;0.092;2022-10-31T05:01:17;1014;;;13.34;85.04
64230;BME280;50547;49.498;0.092;2022-10-31T05:03:46;1014;;;13.32;84.84
64230;BME280;50547;49.498;0.092;2022-10-31T05:06:15;1014;;;13.19;85.39
64230;BME280;50547;49.498;0.092;2022-10-31T05:08:45;1014;;;13.14;85.53
64230;BME280;50547;49.498;0.092;2022-10-31T05:11:14;1013;;;13.09;85.58
64230;BME280;50547;49.498;0.092;2022-10-31T05:13:43;1013;;;12.98;86.03
64230;BME280;50547;49.498;0.092;2022-10-31T05:16:12;1013;;;12.97;85.86
64230;BME280;50547;49.498;0.092;2022-10-31T05:18:42;1013;;;12.89;86.41
64230;BME280;50547;49.498;0.092;2022-10-31T05:21:11;1013;;;12.81;86.80
64230;BME280;50547;49.498;0.092;2022-10-31T05:23:40;1013;;;12.77;86.95
64230;BME280;50547;49.498;0.092;2022-10-31T05:26:09;1013;;;12.68;87.14
64230;BME280;50547;49.498;0.092;2022-10-31T05:28:38;1013;;;12.69;86.95
64230;BME280;50547;49.498;0.092;2022-10-31T05:31:07;1013;;;12.67;86.77
64230;BME280;50547;49.498;0.092;2022-10-31T05:33:36;1013;;;12.61;86.96
64230;BME280;50547;49.498;0.092;2022-10-31T05:36:06;1013;;;12.49;87.38
64230;BME280;50547;49.498;0.092;2022-10-31T05:38:35;1013;;;12.45;87.49
64230;BME280;50547;49.498;0.092;2022-10-31T05:41:04;1013;;;12.51;86.89
64230;BME280;50547;49.498;0.092;2022-10-31T05:43:33;1013;;;12.46;86.94
64230;BME280;50547;49.498;0.092;2022-10-31T05:46:03;1013;;;12.34;87.39
64230;BME280;50547;49.498;0.092;2022-10-31T05:48:32;1013;;;12.24;87.79
64230;BME280;50547;49.498;0.092;2022-10-31T05:51:01;1013;;;12.22;87.57
64230;BME280;50547;49.498;0.092;2022-10-31T05:53:30;1013;;;12.15;87.69
64230;BME280;50547;49.498;0.092;2022-10-31T05:55:59;1013;;;12.02;88.02
64230;BME280;50547;49.498;0.092;2022-10-31T05:58:29;1013;;;12.04;87.78
64230;BME280;50547;49.498;0.092;2022-10-31T06:00:58;1013;;;11.97;87.88
64230;BME280;50547;49.498;0.092;2022-10-31T06:03:27;1013;;;12.02;87.53
64230;BME280;50547;49.498;0.092;2022-10-31T06:05:56;1013;;;11.99;87.48
64230;BME280;50547;49.498;0.092;2022-10-31T06:08:25;1013;;;11.95;87.59
64230;BME280;50547;49.498;0.092;2022-10-31T06:10:54;1013;;;11.83;88.01
64230;BME280;50547;49.498;0.092;2022-10-31T06:13:24;1013;;;11.79;88.17
64230;BME280;50547;49.498;0.092;2022-10-31T06:15:53;1013;;;11.75;88.26
64230;BME280;50547;49.498;0.092;2022-10-31T06:18:22;1013;;;11.72;88.35
64230;BME280;50547;49.498;0.092;2022-10-31T06:20:51;1012;;;11.71;88.33
64230;BME280;50547;49.498;0.092;2022-10-31T06:23:21;1012;;;11.71;88.23
64230;BME280;50547;49.498;0.092;2022-10-31T06:25:51;1012;;;11.73;88.03
64230;BME280;50547;49.498;0.092;2022-10-31T06:28:20;1012;;;11.65;88.41
64230;BME280;50547;49.498;0.092;2022-10-31T06:30:49;1012;;;11.61;88.59
64230;BME280;50547;49.498;0.092;2022-10-31T06:33:19;1012;;;11.62;88.46
64230;BME280;50547;49.498;0.092;2022-10-31T06:35:48;1012;;;11.57;88.63
64230;BME280;50547;49.498;0.092;2022-10-31T06:38:17;1012;;;11.55;88.70
64230;BME280;50547;49.498;0.092;2022-10-31T06:40:46;1012;;;11.55;88.58
64230;BME280;50547;49.498;0.092;2022-10-31T06:43:15;1012;;;11.55;88.52
64230;BME280;50547;49.498;0.092;2022-10-31T06:45:45;1012;;;11.57;88.29
64230;BME280;50547;49.498;0.092;2022-10-31T06:48:14;1012;;;11.45;88.87
64230;BME280;50547;49.498;0.092;2022-10-31T06:50:43;1012;;;11.41;88.90
64230;BME280;50547;49.498;0.092;2022-10-31T06:53:13;1012;;;11.35;88.99
64230;BME280;50547;49.498;0.092;2022-10-31T06:55:42;1012;;;11.39;88.71
64230;BME280;50547;49.498;0.092;2022-10-31T06:58:11;1012;;;11.28;89.22
64230;BME280;50547;49.498;0.092;2022-10-31T07:00:40;1012;;;11.31;89.02
64230;BME280;50547;49.498;0.092;2022-10-31T07:03:11;1012;;;11.26;89.23
64230;BME280;50547;49.498;0.092;2022-10-31T07:05:41;1012;;;11.19;89.52
64230;BME280;50547;49.498;0.092;2022-10-31T07:08:17;1012;;;11.22;89.32
64230;BME280;50547;49.498;0.092;2022-10-31T07:10:51;1012;;;11.25;89.19
64230;BME280;50547;49.498;0.092;2022-10-31T07:13:22;1012;;;11.25;89.20
64230;BME280;50547;49.498;0.092;2022-10-31T07:15:52;1012;;;11.25;89.30
64230;BME280;50547;49.498;0.092;2022-10-31T07:18:22;1012;;;11.27;89.36
64230;BME280;50547;49.498;0.092;2022-10-31T07:20:51;1012;;;11.26;89.50
64230;BME280;50547;49.498;0.092;2022-10-31T07:23:21;1012;;;11.35;89.22
64230;BME280;50547;49.498;0.092;2022-10-31T07:25:54;1012;;;11.34;89.38
64230;BME280;50547;49.498;0.092;2022-10-31T07:28:24;1012;;;11.34;89.56
64230;BME280;50547;49.498;0.092;2022-10-31T07:30:54;1012;;;11.38;89.54
64230;BME280;50547;49.498;0.092;2022-10-31T07:33:24;1012;;;11.42;89.57
64230;BME280;50547;49.498;0.092;2022-10-31T07:35:54;1012;;;11.51;89.37
64230;BME280;50547;49.498;0.092;2022-10-31T07:38:23;1012;;;11.50;89.69
64230;BME280;50547;49.498;0.092;2022-10-31T07:40:53;1012;;;11.55;89.61
64230;BME280;50547;49.498;0.092;2022-10-31T07:43:22;1012;;;11.57;89.83
64230;BME280;50547;49.498;0.092;2022-10-31T07:45:51;1012;;;11.59;89.90
64230;BME280;50547;49.498;0.092;2022-10-31T07:48:21;1012;;;11.72;89.51
64230;BME280;50547;49.498;0.092;2022-10-31T07:50:51;1012;;;11.76;89.59
64230;BME280;50547;49.498;0.092;2022-10-31T07:53:20;1012;;;11.80;89.77
64230;BME280;50547;49.498;0.092;2022-10-31T07:55:50;1012;;;11.84;89.77
64230;BME280;50547;49.498;0.092;2022-10-31T07:58:19;1012;;;11.95;89.56
64230;BME280;50547;49.498;0.092;2022-10-31T08:03:39;1012;;;12.08;89.47
64230;BME280;50547;49.498;0.092;2022-10-31T08:06:08;1012;;;12.06;89.79
64230;BME280;50547;49.498;0.092;2022-10-31T08:08:34;1012;;;12.13;89.58
64230;BME280;50547;49.498;0.092;2022-10-31T08:11:03;1012;;;12.16;89.63
64230;BME280;50547;49.498;0.092;2022-10-31T08:13:33;1012;;;12.22;89.47
64230;BME280;50547;49.498;0.092;2022-10-31T08:16:02;1012;;;12.29;89.36
64230;BME280;50547;49.498;0.092;2022-10-31T08:18:31;1012;;;12.31;89.38
64230;BME280;50547;49.498;0.092;2022-10-31T08:21:01;1012;;;12.29;89.60
64230;BME280;50547;49.498;0.092;2022-10-31T08:23:30;1012;;;12.34;89.39
64230;BME280;50547;49.498;0.092;2022-10-31T08:25:59;1012;;;12.43;89.18
64230;BME280;50547;49.498;0.092;2022-10-31T08:28:29;1012;;;12.55;88.86
64230;BME280;50547;49.498;0.092;2022-10-31T08:30:58;1012;;;12.58;89.00
64230;BME280;50547;49.498;0.092;2022-10-31T08:33:27;1012;;;12.74;88.53
64230;BME280;50547;49.498;0.092;2022-10-31T08:35:57;1012;;;12.84;88.31
64230;BME280;50547;49.498;0.092;2022-10-31T08:38:26;1011;;;12.90;88.38
64230;BME280;50547;49.498;0.092;2022-10-31T08:40:56;1011;;;12.91;88.52
64230;BME280;50547;49.498;0.092;2022-10-31T08:43:25;1011;;;13.00;88.33
64230;BME280;50547;49.498;0.092;2022-10-31T08:46:00;1011;;;13.03;88.38
64230;BME280;50547;49.498;0.092;2022-10-31T08:48:26;1011;;;13.00;88.55
64230;BME280;50547;49.498;0.092;2022-10-31T08:50:56;1011;;;13.08;88.23
64230;BME280;50547;49.498;0.092;2022-10-31T08:53:26;1011;;;12.95;88.82
64230;BME280;50547;49.498;0.092;2022-10-31T08:55:56;1011;;;12.99;88.52
64230;BME280;50547;49.498;0.092;2022-10-31T08:58:25;1011;;;13.10;88.12
64230;BME280;50547;49.498;0.092;2022-10-31T09:00:55;1011;;;13.07;88.29
64230;BME280;50547;49.498;0.092;2022-10-31T09:03:25;1011;;;13.28;87.59
64230;BME280;50547;49.498;0.092;2022-10-31T09:05:56;1011;;;13.32;87.44
64230;BME280;50547;49.498;0.092;2022-10-31T09:08:26;1011;;;13.39;87.28
64230;BME280;50547;49.498;0.092;2022-10-31T09:10:56;1011;;;13.47;87.00
64230;BME280;50547;49.498;0.092;2022-10-31T09:13:25;1011;;;13.50;86.97
64230;BME280;50547;49.498;0.092;2022-10-31T09:15:56;1011;;;13.58;86.71
64230;BME280;50547;49.498;0.092;2022-10-31T09:18:26;1011;;;13.62;86.45
64230;BME280;50547;49.498;0.092;2022-10-31T09:21:00;1011;;;13.65;86.40
64230;BME280;50547;49.498;0.092;2022-10-31T09:23:30;1011;;;13.71;86.13
64230;BME280;50547;49.498;0.092;2022-10-31T09:27:56;1011;;;13.88;85.59
64230;BME280;50547;49.498;0.092;2022-10-31T09:30:26;1011;;;13.87;85.79
64230;BME280;50547;49.498;0.092;2022-10-31T09:32:56;1011;;;13.95;85.52
64230;BME280;50547;49.498;0.092;2022-10-31T09:35:26;1010;;;14.01;85.39
64230;BME280;50547;49.498;0.092;2022-10-31T09:37:56;1010;;;14.13;85.02
64230;BME280;50547;49.498;0.092;2022-10-31T09:40:31;1010;;;14.31;84.25
64230;BME280;50547;49.498;0.092;2022-10-31T09:43:09;1010;;;14.41;83.89
64230;BME280;50547;49.498;0.092;2022-10-31T09:45:51;1010;;;14.51;83.50
64230;BME280;50547;49.498;0.092;2022-10-31T09:48:32;1010;;;14.57;83.28
64230;BME280;50547;49.498;0.092;2022-10-31T09:51:08;1010;;;14.75;82.69
64230;BME280;50547;49.498;0.092;2022-10-31T09:53:41;1010;;;14.70;82.87
64230;BME280;50547;49.498;0.092;2022-10-31T09:56:14;1010;;;14.67;83.12
64230;BME280;50547;49.498;0.092;2022-10-31T09:58:47;1010;;;14.68;83.04
64230;BME280;50547;49.498;0.092;2022-10-31T10:01:26;1010;;;14.79;82.59
64230;BME280;50547;49.498;0.092;2022-10-31T10:04:00;1010;;;14.80;82.57
64230;BME280;50547;49.498;0.092;2022-10-31T10:06:35;1010;;;14.97;81.91
64230;BME280;50547;49.498;0.092;2022-10-31T10:09:07;1010;;;14.96;82.02
64230;BME280;50547;49.498;0.092;2022-10-31T10:11:46;1010;;;15.04;81.92
64230;BME280;50547;49.498;0.092;2022-10-31T10:14:27;1010;;;15.05;81.94
64230;BME280;50547;49.498;0.092;2022-10-31T10:17:09;1010;;;15.08;81.93
64230;BME280;50547;49.498;0.092;2022-10-31T10:19:55;1010;;;15.20;81.54
64230;BME280;50547;49.498;0.092;2022-10-31T10:22:34;1010;;;15.19;81.77
64230;BME280;50547;49.498;0.092;2022-10-31T10:25:15;1010;;;15.31;81.28
64230;BME280;50547;49.498;0.092;2022-10-31T10:27:50;1010;;;15.38;80.95
64230;BME280;50547;49.498;0.092;2022-10-31T10:30:41;1010;;;15.49;80.85
64230;BME280;50547;49.498;0.092;2022-10-31T10:33:13;1009;;;15.53;80.70
64230;BME280;50547;49.498;0.092;2022-10-31T10:35:48;1009;;;15.45;81.13
64230;BME280;50547;49.498;0.092;2022-10-31T10:38:23;1009;;;15.55;80.86
64230;BME280;50547;49.498;0.092;2022-10-31T10:40:55;1009;;;15.69;80.38
64230;BME280;50547;49.498;0.092;2022-10-31T10:43:29;1009;;;15.86;79.76
64230;BME280;50547;49.498;0.092;2022-10-31T10:46:14;1009;;;15.91;79.65
64230;BME280;50547;49.498;0.092;2022-10-31T10:48:47;1009;;;15.99;79.52
64230;BME280;50547;49.498;0.092;2022-10-31T10:51:23;1009;;;16.08;79.18
64230;BME280;50547;49.498;0.092;2022-10-31T10:54:13;1009;;;16.14;79.27
64230;BME280;50547;49.498;0.092;2022-10-31T10:56:54;1009;;;16.31;78.57
64230;BME280;50547;49.498;0.092;2022-10-31T10:59:26;1009;;;16.31;78.82
64230;BME280;50547;49.498;0.092;2022-10-31T11:01:55;1009;;;16.22;79.28
64230;BME280;50547;49.498;0.092;2022-10-31T11:04:29;1009;;;16.33;78.93
64230;BME280;50547;49.498;0.092;2022-10-31T11:07:01;1009;;;16.29;79.23
64230;BME280;50547;49.498;0.092;2022-10-31T11:09:31;1009;;;16.36;78.86
64230;BME280;50547;49.498;0.092;2022-10-31T11:12:07;1009;;;16.45;78.47
64230;BME280;50547;49.498;0.092;2022-10-31T11:14:44;1009;;;16.64;77.94
64230;BME280;50547;49.498;0.092;2022-10-31T11:17:27;1009;;;16.81;77.65
64230;BME280;50547;49.498;0.092;2022-10-31T11:20:02;1009;;;16.79;77.91
64230;BME280;50547;49.498;0.092;2022-10-31T11:22:31;1008;;;17.05;77.21
64230;BME280;50547;49.498;0.092;2022-10-31T11:25:00;1008;;;17.09;77.32
64230;BME280;50547;49.498;0.092;2022-10-31T11:27:40;1008;;;17.24;77.19
64230;BME280;50547;49.498;0.092;2022-10-31T11:30:11;1008;;;17.47;76.60
64230;BME280;50547;49.498;0.092;2022-10-31T11:32:43;1008;;;17.64;76.02
64230;BME280;50547;49.498;0.092;2022-10-31T11:35:16;1008;;;17.93;75.24
64230;BME280;50547;49.498;0.092;2022-10-31T11:37:47;1008;;;18.21;74.20
64230;BME280;50547;49.498;0.092;2022-10-31T11:40:18;1008;;;18.54;73.21
64230;BME280;50547;49.498;0.092;2022-10-31T11:42:49;1008;;;18.59;72.97
64230;BME280;50547;49.498;0.092;2022-10-31T11:45:29;1008;;;18.75;72.33
64230;BME280;50547;49.498;0.092;2022-10-31T11:48:01;1008;;;18.93;71.87
64230;BME280;50547;49.498;0.092;2022-10-31T11:50:34;1008;;;19.28;70.57
64230;BME280;50547;49.498;0.092;2022-10-31T11:53:12;1007;;;19.38;70.14
64230;BME280;50547;49.498;0.092;2022-10-31T11:55:41;1008;;;19.23;71.02
64230;BME280;50547;49.498;0.092;2022-10-31T11:58:21;1007;;;19.31;70.73
64230;BME280;50547;49.498;0.092;2022-10-31T12:00:51;1007;;;19.27;70.80
64230;BME280;50547;49.498;0.092;2022-10-31T12:03:32;1007;;;19.23;71.37
64230;BME280;50547;49.498;0.092;2022-10-31T12:06:03;1007;;;19.45;70.14
64230;BME280;50547;49.498;0.092;2022-10-31T12:08:36;1007;;;19.45;70.54
64230;BME280;50547;49.498;0.092;2022-10-31T12:11:12;1007;;;19.49;70.25
64230;BME280;50547;49.498;0.092;2022-10-31T12:13:56;1007;;;19.87;68.98
64230;BME280;50547;49.498;0.092;2022-10-31T12:16:29;1007;;;20.08;68.34
64230;BME280;50547;49.498;0.092;2022-10-31T12:19:04;1007;;;20.16;68.15
64230;BME280;50547;49.498;0.092;2022-10-31T12:21:47;1007;;;20.26;68.37
64230;BME280;50547;49.498;0.092;2022-10-31T12:24:30;1007;;;20.42;67.70
64230;BME280;50547;49.498;0.092;2022-10-31T12:27:10;1007;;;20.68;67.21
64230;BME280;50547;49.498;0.092;2022-10-31T12:30:02;1007;;;20.99;65.85
64230;BME280;50547;49.498;0.092;2022-10-31T12:32:40;1007;;;20.74;67.35
64230;BME280;50547;49.498;0.092;2022-10-31T12:35:24;1006;;;20.59;68.04
64230;BME280;50547;49.498;0.092;2022-10-31T12:38:13;1006;;;20.46;68.59
64230;BME280;50547;49.498;0.092;2022-10-31T12:40:53;1006;;;20.55;68.20
64230;BME280;50547;49.498;0.092;2022-10-31T12:43:36;1006;;;20.33;69.03
64230;BME280;50547;49.498;0.092;2022-10-31T12:46:11;1006;;;19.99;70.79
64230;BME280;50547;49.498;0.092;2022-10-31T12:49:27;1006;;;19.83;71.30
64230;BME280;50547;49.498;0.092;2022-10-31T12:52:10;1006;;;19.83;70.85
64230;BME280;50547;49.498;0.092;2022-10-31T12:54:54;1006;;;19.82;70.73
64230;BME280;50547;49.498;0.092;2022-10-31T12:57:31;1006;;;19.90;70.26
64230;BME280;50547;49.498;0.092;2022-10-31T13:00:07;1006;;;19.92;70.23
64230;BME280;50547;49.498;0.092;2022-10-31T13:02:43;1006;;;20.11;69.51
64230;BME280;50547;49.498;0.092;2022-10-31T13:05:17;1006;;;20.14;69.41
64230;BME280;50547;49.498;0.092;2022-10-31T13:07:52;1006;;;20.09;69.85
64230;BME280;50547;49.498;0.092;2022-10-31T13:10:28;1006;;;20.07;70.20
64230;BME280;50547;49.498;0.092;2022-10-31T13:13:10;1006;;;20.17;69.86
64230;BME280;50547;49.498;0.092;2022-10-31T13:15:47;1005;;;20.09;70.00
64230;BME280;50547;49.498;0.092;2022-10-31T13:18:24;1005;;;20.00;70.57
64230;BME280;50547;49.498;0.092;2022-10-31T13:20:55;1005;;;20.05;70.35
64230;BME280;50547;49.498;0.092;2022-10-31T13:23:27;1005;;;20.07;70.32
64230;BME280;50547;49.498;0.092;2022-10-31T13:26:00;1005;;;20.10;70.44
64230;BME280;50547;49.498;0.092;2022-10-31T13:28:35;1005;;;20.13;70.58
64230;BME280;50547;49.498;0.092;2022-10-31T13:31:06;1005;;;20.23;70.05
64230;BME280;50547;49.498;0.092;2022-10-31T13:33:39;1005;;;20.17;70.67
64230;BME280;50547;49.498;0.092;2022-10-31T13:36:19;1005;;;20.29;70.08
64230;BME280;50547;49.498;0.092;2022-10-31T13:38:52;1005;;;20.27;70.31
64230;BME280;50547;49.498;0.092;2022-10-31T13:41:33;1005;;;20.24;70.58
64230;BME280;50547;49.498;0.092;2022-10-31T13:44:11;1005;;;20.19;70.80
64230;BME280;50547;49.498;0.092;2022-10-31T13:46:41;1004;;;20.24;70.74
64230;BME280;50547;49.498;0.092;2022-10-31T13:49:38;1004;;;20.13;71.23
64230;BME280;50547;49.498;0.092;2022-10-31T13:52:16;1004;;;20.13;71.10
64230;BME280;50547;49.498;0.092;2022-10-31T13:54:47;1004;;;20.29;70.68
64230;BME280;50547;49.498;0.092;2022-10-31T13:57:18;1004;;;20.45;69.95
64230;BME280;50547;49.498;0.092;2022-10-31T13:59:50;1004;;;20.37;70.72
64230;BME280;50547;49.498;0.092;2022-10-31T14:02:25;1004;;;20.40;70.68
64230;BME280;50547;49.498;0.092;2022-10-31T14:04:58;1004;;;20.46;70.56
64230;BME280;50547;49.498;0.092;2022-10-31T14:07:29;1004;;;20.52;70.48
64230;BME280;50547;49.498;0.092;2022-10-31T14:10:02;1004;;;20.59;70.27
64230;BME280;50547;49.498;0.092;2022-10-31T14:12:35;1004;;;20.65;70.21
64230;BME280;50547;49.498;0.092;2022-10-31T14:15:20;1004;;;20.65;70.27
64230;BME280;50547;49.498;0.092;2022-10-31T14:17:52;1004;;;20.51;71.12
64230;BME280;50547;49.498;0.092;2022-10-31T14:20:33;1004;;;20.47;71.32